sensor_id;sensor_type;location;lat;lon;timestamp;pressure;altitude;pressure_sealevel;temperature;humidity
83152;BME280;73381;58.502;8.624;2024-02-23T00:00:11;96097.47;;;3.42;95.46
83152;BME280;73381;58.502;8.624;2024-02-23T00:03:14;96069.22;;;3.31;94.71
83152;BME280;73381;58.502;8.624;2024-02-23T00:06:19;96108.53;;;3.44;94.61
83152;BME280;73381;58.502;8.624;2024-02-23T00:09:21;95886.03;;;1.90;95.10
83152;BME280;73381;58.502;8.624;2024-02-23T00:15:45;95913.53;;;2.22;94.49
83152;BME280;73381;58.502;8.624;2024-02-23T00:18:54;96043.34;;;3.30;94.10
83152;BME280;73381;58.502;8.624;2024-02-23T00:22:10;95787.84;;;1.69;94.29
83152;BME280;73381;58.502;8.624;2024-02-23T00:25:27;96015.19;;;3.40;93.93
83152;BME280;73381;58.502;8.624;2024-02-23T00:28:38;96047.09;;;3.42;93.79
83152;BME280;73381;58.502;8.624;2024-02-23T00:34:46;95991.16;;;3.44;94.22
83152;BME280;73381;58.502;8.624;2024-02-23T00:37:51;95583.06;;;0.97;93.88
83152;BME280;73381;58.502;8.624;2024-02-23T00:40:53;95886.22;;;3.06;93.92
83152;BME280;73381;58.502;8.624;2024-02-23T00:43:57;95939.44;;;3.48;94.38
83152;BME280;73381;58.502;8.624;2024-02-23T00:47:02;95768.50;;;2.45;94.00
83152;BME280;73381;58.502;8.624;2024-02-23T00:50:06;95885.72;;;3.32;94.05
83152;BME280;73381;58.502;8.624;2024-02-23T00:53:18;95888.81;;;3.57;93.90
83152;BME280;73381;58.502;8.624;2024-02-23T00:56:20;95843.16;;;3.25;93.72
83152;BME280;73381;58.502;8.624;2024-02-23T00:59:31;95821.53;;;3.31;93.44
83152;BME280;73381;58.502;8.624;2024-02-23T01:02:34;95708.22;;;2.63;93.55
83152;BME280;73381;58.502;8.624;2024-02-23T01:05:36;95810.97;;;3.61;93.79
83152;BME280;73381;58.502;8.624;2024-02-23T01:08:39;95829.03;;;3.62;93.66
83152;BME280;73381;58.502;8.624;2024-02-23T01:11:42;95807.00;;;3.65;93.66
83152;BME280;73381;58.502;8.624;2024-02-23T01:14:47;95342.22;;;0.84;93.14
83152;BME280;73381;58.502;8.624;2024-02-23T01:17:52;95275.09;;;0.45;93.33
83152;BME280;73381;58.502;8.624;2024-02-23T01:20:56;95744.13;;;3.53;93.56
83152;BME280;73381;58.502;8.624;2024-02-23T01:24:00;95606.00;;;2.54;93.51
83152;BME280;73381;58.502;8.624;2024-02-23T01:27:03;95449.44;;;1.87;93.28
83152;BME280;73381;58.502;8.624;2024-02-23T01:30:06;95637.25;;;3.04;93.52
83152;BME280;73381;58.502;8.624;2024-02-23T01:33:09;95579.41;;;2.87;93.72
83152;BME280;73381;58.502;8.624;2024-02-23T01:36:15;95525.41;;;2.46;93.50
83152;BME280;73381;58.502;8.624;2024-02-23T01:39:19;95274.03;;;0.97;92.92
83152;BME280;73381;58.502;8.624;2024-02-23T01:42:21;95709.34;;;3.74;93.38
83152;BME280;73381;58.502;8.624;2024-02-23T01:45:23;95706.53;;;3.75;93.59
83152;BME280;73381;58.502;8.624;2024-02-23T01:48:25;95232.03;;;0.87;93.31
83152;BME280;73381;58.502;8.624;2024-02-23T01:51:31;95490.06;;;2.37;93.11
83152;BME280;73381;58.502;8.624;2024-02-23T01:54:40;95670.69;;;3.84;93.27
83152;BME280;73381;58.502;8.624;2024-02-23T01:57:42;95450.94;;;2.24;92.43
83152;BME280;73381;58.502;8.624;2024-02-23T02:00:54;95637.16;;;3.81;93.13
83152;BME280;73381;58.502;8.624;2024-02-23T02:04:09;95642.94;;;3.76;93.05
83152;BME280;73381;58.502;8.624;2024-02-23T02:07:11;95466.84;;;2.63;93.41
83152;BME280;73381;58.502;8.624;2024-02-23T02:10:20;95219.28;;;1.13;93.02
83152;BME280;73381;58.502;8.624;2024-02-23T02:16:37;95572.03;;;3.60;93.25
83152;BME280;73381;58.502;8.624;2024-02-23T02:19:39;95566.22;;;3.57;93.38
83152;BME280;73381;58.502;8.624;2024-02-23T02:22:48;95564.22;;;3.60;93.34
83152;BME280;73381;58.502;8.624;2024-02-23T02:25:57;95578.31;;;3.72;93.54
83152;BME280;73381;58.502;8.624;2024-02-23T02:29:01;95059.81;;;0.31;92.99
83152;BME280;73381;58.502;8.624;2024-02-23T02:32:12;95152.09;;;1.10;92.86
83152;BME280;73381;58.502;8.624;2024-02-23T02:35:30;95547.44;;;3.82;93.41
83152;BME280;73381;58.502;8.624;2024-02-23T02:38:34;95097.53;;;1.04;92.88
83152;BME280;73381;58.502;8.624;2024-02-23T02:41:41;95136.47;;;1.32;93.22
83152;BME280;73381;58.502;8.624;2024-02-23T02:44:50;95069.47;;;0.93;92.74
83152;BME280;73381;58.502;8.624;2024-02-23T02:48:06;95229.19;;;1.94;92.98
83152;BME280;73381;58.502;8.624;2024-02-23T02:51:22;95083.03;;;0.88;92.43
83152;BME280;73381;58.502;8.624;2024-02-23T02:54:41;95401.78;;;3.11;93.64
83152;BME280;73381;58.502;8.624;2024-02-23T02:57:48;95028.59;;;1.01;92.89
83152;BME280;73381;58.502;8.624;2024-02-23T03:00:54;95179.66;;;2.08;93.36
83152;BME280;73381;58.502;8.624;2024-02-23T03:04:00;95286.75;;;2.60;93.35
83152;BME280;73381;58.502;8.624;2024-02-23T03:07:04;95453.53;;;3.82;93.33
83152;BME280;73381;58.502;8.624;2024-02-23T03:13:26;95005.81;;;1.03;92.56
83152;BME280;73381;58.502;8.624;2024-02-23T03:16:34;94948.81;;;0.88;92.81
83152;BME280;73381;58.502;8.624;2024-02-23T03:19:42;95194.69;;;2.13;93.43
83152;BME280;73381;58.502;8.624;2024-02-23T03:29:16;95305.00;;;3.47;93.29
83152;BME280;73381;58.502;8.624;2024-02-23T03:32:22;94951.56;;;1.22;93.08
83152;BME280;73381;58.502;8.624;2024-02-23T03:35:31;95288.13;;;3.17;92.96
83152;BME280;73381;58.502;8.624;2024-02-23T03:48:43;95035.00;;;2.27;92.78
83152;BME280;73381;58.502;8.624;2024-02-23T03:55:19;94914.09;;;1.70;92.51
83152;BME280;73381;58.502;8.624;2024-02-23T03:58:24;95266.28;;;3.97;92.47
83152;BME280;73381;58.502;8.624;2024-02-23T04:01:31;94850.63;;;1.12;92.91
83152;BME280;73381;58.502;8.624;2024-02-23T04:04:47;95149.59;;;3.26;92.86
83152;BME280;73381;58.502;8.624;2024-02-23T04:07:52;95241.97;;;3.97;93.03
83152;BME280;73381;58.502;8.624;2024-02-23T04:10:55;95075.47;;;2.96;93.00
83152;BME280;73381;58.502;8.624;2024-02-23T04:14:02;94927.53;;;2.14;92.85
83152;BME280;73381;58.502;8.624;2024-02-23T04:17:05;94949.34;;;2.19;92.68
83152;BME280;73381;58.502;8.624;2024-02-23T04:33:38;94919.50;;;2.28;92.96
83152;BME280;73381;58.502;8.624;2024-02-23T04:36:40;95119.25;;;3.58;93.20
83152;BME280;73381;58.502;8.624;2024-02-23T04:39:44;95165.72;;;3.95;93.42
83152;BME280;73381;58.502;8.624;2024-02-23T04:42:53;95075.94;;;3.57;93.17
83152;BME280;73381;58.502;8.624;2024-02-23T04:46:05;94692.78;;;1.07;93.00
83152;BME280;73381;58.502;8.624;2024-02-23T04:49:18;94836.84;;;2.11;92.63
83152;BME280;73381;58.502;8.624;2024-02-23T04:52:21;95109.56;;;3.79;93.03
83152;BME280;73381;58.502;8.624;2024-02-23T05:01:52;94795.31;;;1.77;92.50
83152;BME280;73381;58.502;8.624;2024-02-23T05:04:59;94719.38;;;1.23;92.54
83152;BME280;73381;58.502;8.624;2024-02-23T05:08:02;95085.50;;;3.77;93.06
83152;BME280;73381;58.502;8.624;2024-02-23T05:17:24;94663.22;;;1.08;92.75
83152;BME280;73381;58.502;8.624;2024-02-23T05:23:55;94890.75;;;2.88;93.00
83152;BME280;73381;58.502;8.624;2024-02-23T05:26:57;94845.66;;;2.09;92.51
83152;BME280;73381;58.502;8.624;2024-02-23T05:30:04;94731.16;;;1.45;93.28
83152;BME280;73381;58.502;8.624;2024-02-23T05:39:39;94995.59;;;3.35;92.89
83152;BME280;73381;58.502;8.624;2024-02-23T05:42:41;94796.66;;;2.13;92.92
83152;BME280;73381;58.502;8.624;2024-02-23T05:45:43;94967.91;;;3.40;92.96
83152;BME280;73381;58.502;8.624;2024-02-23T05:48:49;94794.66;;;2.15;93.38
83152;BME280;73381;58.502;8.624;2024-02-23T05:58:42;94834.44;;;2.87;93.17
83152;BME280;73381;58.502;8.624;2024-02-23T06:01:44;94952.75;;;3.62;93.41
83152;BME280;73381;58.502;8.624;2024-02-23T06:08:01;94950.72;;;3.64;93.00
83152;BME280;73381;58.502;8.624;2024-02-23T06:14:19;94914.69;;;3.16;92.23
83152;BME280;73381;58.502;8.624;2024-02-23T06:20:26;94568.50;;;1.24;90.95
83152;BME280;73381;58.502;8.624;2024-02-23T06:23:29;94623.19;;;1.49;91.14
83152;BME280;73381;58.502;8.624;2024-02-23T06:26:31;95027.31;;;4.14;90.66
83152;BME280;73381;58.502;8.624;2024-02-23T06:29:35;94871.22;;;3.10;90.02
83152;BME280;73381;58.502;8.624;2024-02-23T06:35:40;94993.78;;;3.80;90.02
83152;BME280;73381;58.502;8.624;2024-02-23T06:38:42;95016.81;;;3.90;89.90
83152;BME280;73381;58.502;8.624;2024-02-23T06:41:44;94692.16;;;1.58;89.61
83152;BME280;73381;58.502;8.624;2024-02-23T06:51:08;94607.31;;;0.93;89.40
83152;BME280;73381;58.502;8.624;2024-02-23T06:57:30;94599.53;;;0.86;89.65
83152;BME280;73381;58.502;8.624;2024-02-23T07:00:41;95034.25;;;3.44;90.29
83152;BME280;73381;58.502;8.624;2024-02-23T07:04:11;95043.78;;;3.70;89.80
83152;BME280;73381;58.502;8.624;2024-02-23T07:07:16;94899.56;;;2.80;89.66
83152;BME280;73381;58.502;8.624;2024-02-23T07:10:20;94979.41;;;3.26;89.87
83152;BME280;73381;58.502;8.624;2024-02-23T07:16:43;94903.00;;;2.74;89.07
83152;BME280;73381;58.502;8.624;2024-02-23T07:26:51;95085.22;;;3.40;90.67
83152;BME280;73381;58.502;8.624;2024-02-23T07:30:00;95080.81;;;3.34;90.53
83152;BME280;73381;58.502;8.624;2024-02-23T07:33:07;94654.34;;;0.23;89.48
83152;BME280;73381;58.502;8.624;2024-02-23T07:36:14;95009.38;;;2.71;89.29
83152;BME280;73381;58.502;8.624;2024-02-23T07:39:17;95084.47;;;3.07;88.82
83152;BME280;73381;58.502;8.624;2024-02-23T07:42:20;95072.44;;;2.92;88.81
83152;BME280;73381;58.502;8.624;2024-02-23T07:45:22;95075.88;;;3.00;89.17
83152;BME280;73381;58.502;8.624;2024-02-23T07:48:23;95114.53;;;3.16;89.04
83152;BME280;73381;58.502;8.624;2024-02-23T07:51:25;95137.78;;;3.11;88.98
83152;BME280;73381;58.502;8.624;2024-02-23T07:54:28;95123.75;;;3.05;89.35
83152;BME280;73381;58.502;8.624;2024-02-23T07:57:31;95032.63;;;2.46;89.03
83152;BME280;73381;58.502;8.624;2024-02-23T08:00:33;95107.75;;;2.82;88.83
83152;BME280;73381;58.502;8.624;2024-02-23T08:03:35;95077.69;;;2.73;88.07
83152;BME280;73381;58.502;8.624;2024-02-23T08:06:37;95113.34;;;2.92;86.58
83152;BME280;73381;58.502;8.624;2024-02-23T08:09:39;95110.34;;;2.88;87.06
83152;BME280;73381;58.502;8.624;2024-02-23T08:12:42;95104.94;;;2.83;87.78
83152;BME280;73381;58.502;8.624;2024-02-23T08:15:44;95074.28;;;2.59;88.25
83152;BME280;73381;58.502;8.624;2024-02-23T08:18:46;95038.63;;;2.40;88.04
83152;BME280;73381;58.502;8.624;2024-02-23T08:21:48;95092.28;;;2.67;88.28
83152;BME280;73381;58.502;8.624;2024-02-23T08:24:52;95089.47;;;2.49;88.54
83152;BME280;73381;58.502;8.624;2024-02-23T08:28:08;95126.53;;;2.64;89.20
83152;BME280;73381;58.502;8.624;2024-02-23T08:31:10;94807.63;;;0.28;88.77
83152;BME280;73381;58.502;8.624;2024-02-23T08:37:22;95185.25;;;2.73;89.00
83152;BME280;73381;58.502;8.624;2024-02-23T08:40:24;95201.84;;;2.65;89.35
83152;BME280;73381;58.502;8.624;2024-02-23T08:43:29;95201.00;;;2.52;89.24
83152;BME280;73381;58.502;8.624;2024-02-23T08:46:31;95236.50;;;2.59;88.99
83152;BME280;73381;58.502;8.624;2024-02-23T08:52:44;95227.94;;;2.18;89.51
83152;BME280;73381;58.502;8.624;2024-02-23T08:55:47;95233.28;;;2.09;88.74
83152;BME280;73381;58.502;8.624;2024-02-23T08:58:50;95168.41;;;1.60;88.17
83152;BME280;73381;58.502;8.624;2024-02-23T09:01:56;95303.03;;;2.27;88.37
83152;BME280;73381;58.502;8.624;2024-02-23T09:04:59;95316.19;;;2.19;88.99
83152;BME280;73381;58.502;8.624;2024-02-23T09:08:01;95277.50;;;1.75;88.70
83152;BME280;73381;58.502;8.624;2024-02-23T09:11:03;95355.47;;;1.96;87.67
83152;BME280;73381;58.502;8.624;2024-02-23T09:14:07;95363.34;;;1.82;87.00
83152;BME280;73381;58.502;8.624;2024-02-23T09:17:09;95412.22;;;1.65;87.82
83152;BME280;73381;58.502;8.624;2024-02-23T09:20:11;95408.88;;;1.49;88.52
83152;BME280;73381;58.502;8.624;2024-02-23T09:23:13;95392.50;;;1.13;88.14
83152;BME280;73381;58.502;8.624;2024-02-23T09:26:15;95404.94;;;1.17;88.38
83152;BME280;73381;58.502;8.624;2024-02-23T09:29:19;95412.13;;;1.15;87.86
83152;BME280;73381;58.502;8.624;2024-02-23T09:32:21;95351.66;;;0.71;86.67
83152;BME280;73381;58.502;8.624;2024-02-23T09:35:23;95291.94;;;0.20;86.15
83152;BME280;73381;58.502;8.624;2024-02-23T09:38:25;95468.97;;;1.10;86.42
83152;BME280;73381;58.502;8.624;2024-02-23T09:41:27;95542.63;;;1.68;86.62
83152;BME280;73381;58.502;8.624;2024-02-23T09:44:32;95532.81;;;1.49;86.56
83152;BME280;73381;58.502;8.624;2024-02-23T09:47:34;95581.28;;;1.71;86.07
83152;BME280;73381;58.502;8.624;2024-02-23T09:50:37;95570.19;;;1.63;86.00
83152;BME280;73381;58.502;8.624;2024-02-23T09:53:42;95511.06;;;1.35;86.90
83152;BME280;73381;58.502;8.624;2024-02-23T09:56:46;95605.31;;;1.73;85.73
83152;BME280;73381;58.502;8.624;2024-02-23T09:59:50;95558.19;;;1.47;84.47
83152;BME280;73381;58.502;8.624;2024-02-23T10:02:53;95673.69;;;2.18;84.59
83152;BME280;73381;58.502;8.624;2024-02-23T10:05:56;95716.22;;;2.25;84.97
83152;BME280;73381;58.502;8.624;2024-02-23T10:08:58;95636.09;;;1.55;84.64
83152;BME280;73381;58.502;8.624;2024-02-23T10:12:01;95674.59;;;1.81;83.72
83152;BME280;73381;58.502;8.624;2024-02-23T10:15:06;95759.91;;;2.30;83.46
83152;BME280;73381;58.502;8.624;2024-02-23T10:18:08;95794.09;;;2.42;83.43
83152;BME280;73381;58.502;8.624;2024-02-23T10:21:10;95807.75;;;2.44;83.02
83152;BME280;73381;58.502;8.624;2024-02-23T10:24:13;95814.56;;;2.45;83.35
83152;BME280;73381;58.502;8.624;2024-02-23T10:27:15;95702.03;;;1.54;83.83
83152;BME280;73381;58.502;8.624;2024-02-23T10:30:19;95787.09;;;1.98;84.61
83152;BME280;73381;58.502;8.624;2024-02-23T10:33:22;95889.94;;;2.53;83.60
83152;BME280;73381;58.502;8.624;2024-02-23T10:36:27;95909.28;;;2.58;83.41
83152;BME280;73381;58.502;8.624;2024-02-23T10:39:31;95913.88;;;2.71;81.75
83152;BME280;73381;58.502;8.624;2024-02-23T10:42:33;95920.50;;;2.59;80.88
83152;BME280;73381;58.502;8.624;2024-02-23T10:45:38;95904.25;;;2.42;80.82
83152;BME280;73381;58.502;8.624;2024-02-23T10:48:44;96003.59;;;2.83;80.41
83152;BME280;73381;58.502;8.624;2024-02-23T10:51:47;95932.50;;;2.30;81.14
83152;BME280;73381;58.502;8.624;2024-02-23T10:54:50;95903.28;;;2.05;81.05
83152;BME280;73381;58.502;8.624;2024-02-23T10:57:53;96033.69;;;2.86;79.77
83152;BME280;73381;58.502;8.624;2024-02-23T11:01:00;95979.44;;;2.37;79.13
83152;BME280;73381;58.502;8.624;2024-02-23T11:04:03;96069.63;;;2.90;80.10
83152;BME280;73381;58.502;8.624;2024-02-23T11:07:12;96086.06;;;2.91;80.21
83152;BME280;73381;58.502;8.624;2024-02-23T11:10:14;96090.19;;;2.85;81.24
83152;BME280;73381;58.502;8.624;2024-02-23T11:13:17;96085.34;;;2.82;81.38
83152;BME280;73381;58.502;8.624;2024-02-23T11:16:25;95908.66;;;1.35;82.17
83152;BME280;73381;58.502;8.624;2024-02-23T11:19:34;96153.28;;;2.95;82.14
83152;BME280;73381;58.502;8.624;2024-02-23T11:22:36;96157.19;;;3.00;81.14
83152;BME280;73381;58.502;8.624;2024-02-23T11:25:40;96146.44;;;2.94;81.26
83152;BME280;73381;58.502;8.624;2024-02-23T11:28:43;96181.66;;;3.13;80.39
83152;BME280;73381;58.502;8.624;2024-02-23T11:31:47;96187.16;;;3.18;80.21
83152;BME280;73381;58.502;8.624;2024-02-23T11:34:54;96197.69;;;3.25;79.80
83152;BME280;73381;58.502;8.624;2024-02-23T11:37:56;96234.28;;;3.32;78.21
83152;BME280;73381;58.502;8.624;2024-02-23T11:40:59;96185.38;;;2.96;77.83
83152;BME280;73381;58.502;8.624;2024-02-23T11:44:01;96242.47;;;3.28;78.42
83152;BME280;73381;58.502;8.624;2024-02-23T11:47:05;96252.25;;;3.26;78.18
83152;BME280;73381;58.502;8.624;2024-02-23T11:50:09;96268.09;;;3.25;78.37
83152;BME280;73381;58.502;8.624;2024-02-23T11:53:11;96272.50;;;3.24;78.06
83152;BME280;73381;58.502;8.624;2024-02-23T11:56:13;96300.09;;;3.34;76.90
83152;BME280;73381;58.502;8.624;2024-02-23T11:59:15;96299.75;;;3.37;77.15
83152;BME280;73381;58.502;8.624;2024-02-23T12:02:19;96318.47;;;3.40;76.97
83152;BME280;73381;58.502;8.624;2024-02-23T12:05:23;96265.69;;;2.92;76.53
83152;BME280;73381;58.502;8.624;2024-02-23T12:08:26;96175.09;;;2.26;78.13
83152;BME280;73381;58.502;8.624;2024-02-23T12:11:29;96339.56;;;3.31;78.07
83152;BME280;73381;58.502;8.624;2024-02-23T12:14:35;96375.50;;;3.43;77.46
83152;BME280;73381;58.502;8.624;2024-02-23T12:17:46;96365.94;;;3.05;79.09
83152;BME280;73381;58.502;8.624;2024-02-23T12:20:49;96382.56;;;3.04;79.75
83152;BME280;73381;58.502;8.624;2024-02-23T12:23:53;96342.22;;;2.60;80.52
83152;BME280;73381;58.502;8.624;2024-02-23T12:26:56;96120.97;;;1.27;80.12
83152;BME280;73381;58.502;8.624;2024-02-23T12:30:00;96266.97;;;2.34;80.21
83152;BME280;73381;58.502;8.624;2024-02-23T12:33:07;96010.44;;;0.36;80.77
83152;BME280;73381;58.502;8.624;2024-02-23T12:36:10;96016.72;;;0.66;80.46
83152;BME280;73381;58.502;8.624;2024-02-23T12:39:14;95980.22;;;0.68;79.65
83152;BME280;73381;58.502;8.624;2024-02-23T12:42:17;96187.56;;;1.99;79.77
83152;BME280;73381;58.502;8.624;2024-02-23T12:45:20;96418.03;;;3.44;78.48
83152;BME280;73381;58.502;8.624;2024-02-23T12:48:23;96307.03;;;2.95;77.21
83152;BME280;73381;58.502;8.624;2024-02-23T12:51:25;96516.38;;;4.20;76.21
83152;BME280;73381;58.502;8.624;2024-02-23T12:54:29;96413.00;;;3.65;75.95
83152;BME280;73381;58.502;8.624;2024-02-23T12:57:32;96537.63;;;4.40;75.89
83152;BME280;73381;58.502;8.624;2024-02-23T13:00:35;96514.75;;;4.19;76.27
83152;BME280;73381;58.502;8.624;2024-02-23T13:03:52;96265.13;;;2.43;76.82
83152;BME280;73381;58.502;8.624;2024-02-23T13:10:14;96399.06;;;3.27;74.71
83152;BME280;73381;58.502;8.624;2024-02-23T13:13:23;96587.53;;;4.45;73.55
83152;BME280;73381;58.502;8.624;2024-02-23T13:16:28;96583.75;;;4.47;72.97
83152;BME280;73381;58.502;8.624;2024-02-23T13:19:34;96540.41;;;4.15;72.56
83152;BME280;73381;58.502;8.624;2024-02-23T13:25:40;96096.81;;;1.18;71.85
83152;BME280;73381;58.502;8.624;2024-02-23T13:28:42;96518.16;;;3.35;71.87
83152;BME280;73381;58.502;8.624;2024-02-23T13:31:43;96634.56;;;4.45;72.40
83152;BME280;73381;58.502;8.624;2024-02-23T13:34:49;96304.75;;;2.22;71.27
83152;BME280;73381;58.502;8.624;2024-02-23T13:37:52;96653.13;;;4.50;71.23
83152;BME280;73381;58.502;8.624;2024-02-23T13:40:55;96340.13;;;2.48;71.50
83152;BME280;73381;58.502;8.624;2024-02-23T13:43:58;96663.34;;;4.37;70.47
83152;BME280;73381;58.502;8.624;2024-02-23T13:47:02;96443.19;;;2.97;71.67
83152;BME280;73381;58.502;8.624;2024-02-23T13:50:08;96445.81;;;2.97;70.80
83152;BME280;73381;58.502;8.624;2024-02-23T13:53:10;96668.69;;;4.43;71.61
83152;BME280;73381;58.502;8.624;2024-02-23T13:56:12;96649.53;;;4.20;71.58
83152;BME280;73381;58.502;8.624;2024-02-23T13:59:22;96754.09;;;4.74;71.63
83152;BME280;73381;58.502;8.624;2024-02-23T14:02:25;96582.13;;;3.62;71.64
83152;BME280;73381;58.502;8.624;2024-02-23T14:05:35;96436.50;;;2.40;71.60
83152;BME280;73381;58.502;8.624;2024-02-23T14:08:39;96333.78;;;1.78;70.89
83152;BME280;73381;58.502;8.624;2024-02-23T14:15:04;96481.56;;;2.56;72.58
83152;BME280;73381;58.502;8.624;2024-02-23T14:18:09;96359.94;;;1.53;72.42
83152;BME280;73381;58.502;8.624;2024-02-23T14:21:30;96354.91;;;1.84;72.37
83152;BME280;73381;58.502;8.624;2024-02-23T14:24:35;96597.22;;;3.27;72.96
83152;BME280;73381;58.502;8.624;2024-02-23T14:27:44;96595.22;;;3.45;71.69
83152;BME280;73381;58.502;8.624;2024-02-23T14:30:46;96492.38;;;2.92;71.10
83152;BME280;73381;58.502;8.624;2024-02-23T14:33:49;96571.72;;;3.53;71.07
83152;BME280;73381;58.502;8.624;2024-02-23T14:36:53;96500.19;;;2.92;70.48
83152;BME280;73381;58.502;8.624;2024-02-23T14:43:11;96353.88;;;2.09;69.13
83152;BME280;73381;58.502;8.624;2024-02-23T14:49:34;96623.78;;;3.86;68.52
83152;BME280;73381;58.502;8.624;2024-02-23T14:52:38;96768.75;;;5.06;68.78
83152;BME280;73381;58.502;8.624;2024-02-23T14:58:55;96521.81;;;3.09;68.88
83152;BME280;73381;58.502;8.624;2024-02-23T15:08:22;96798.97;;;4.46;72.51
83152;BME280;73381;58.502;8.624;2024-02-23T15:11:39;96920.66;;;4.88;73.13
83152;BME280;73381;58.502;8.624;2024-02-23T15:14:51;96968.38;;;4.90;73.03
83152;BME280;73381;58.502;8.624;2024-02-23T15:21:22;96479.78;;;1.92;72.77
83152;BME280;73381;58.502;8.624;2024-02-23T15:24:26;96771.75;;;3.61;72.89
83152;BME280;73381;58.502;8.624;2024-02-23T15:27:28;96817.06;;;3.60;73.22
83152;BME280;73381;58.502;8.624;2024-02-23T15:30:34;96515.16;;;1.60;73.71
83152;BME280;73381;58.502;8.624;2024-02-23T15:33:37;96576.53;;;1.95;74.64
83152;BME280;73381;58.502;8.624;2024-02-23T15:36:39;96985.56;;;4.76;74.45
83152;BME280;73381;58.502;8.624;2024-02-23T15:39:47;96746.31;;;2.98;73.82
83152;BME280;73381;58.502;8.624;2024-02-23T15:42:53;96471.09;;;1.08;73.81
83152;BME280;73381;58.502;8.624;2024-02-23T15:46:04;96588.66;;;1.78;74.71
83152;BME280;73381;58.502;8.624;2024-02-23T15:49:08;96538.34;;;1.11;75.61
83152;BME280;73381;58.502;8.624;2024-02-23T15:52:25;96591.69;;;1.24;76.04
83152;BME280;73381;58.502;8.624;2024-02-23T15:55:34;96817.31;;;2.50;76.56
83152;BME280;73381;58.502;8.624;2024-02-23T15:58:40;96612.03;;;1.02;77.43
83152;BME280;73381;58.502;8.624;2024-02-23T16:01:41;97060.25;;;3.72;78.13
83152;BME280;73381;58.502;8.624;2024-02-23T16:04:45;96996.75;;;3.13;79.62
83152;BME280;73381;58.502;8.624;2024-02-23T16:07:49;96858.97;;;2.16;80.01
83152;BME280;73381;58.502;8.624;2024-02-23T16:10:53;96660.00;;;0.54;81.20
83152;BME280;73381;58.502;8.624;2024-02-23T16:13:56;97079.25;;;3.22;82.28
83152;BME280;73381;58.502;8.624;2024-02-23T16:17:00;97106.75;;;3.16;82.98
83152;BME280;73381;58.502;8.624;2024-02-23T16:20:06;96645.22;;;0.02;83.72
83152;BME280;73381;58.502;8.624;2024-02-23T16:23:10;97120.53;;;3.09;83.72
83152;BME280;73381;58.502;8.624;2024-02-23T16:26:14;97140.06;;;3.05;84.58
83152;BME280;73381;58.502;8.624;2024-02-23T16:29:17;97123.00;;;2.84;84.01
83152;BME280;73381;58.502;8.624;2024-02-23T16:32:20;97158.88;;;2.90;84.49
83152;BME280;73381;58.502;8.624;2024-02-23T16:35:23;97166.31;;;2.85;84.88
83152;BME280;73381;58.502;8.624;2024-02-23T16:38:25;97099.28;;;2.34;84.35
83152;BME280;73381;58.502;8.624;2024-02-23T16:41:28;97190.31;;;2.71;84.16
83152;BME280;73381;58.502;8.624;2024-02-23T16:44:30;97120.25;;;2.15;84.55
83152;BME280;73381;58.502;8.624;2024-02-23T16:47:32;97204.97;;;2.54;85.28
83152;BME280;73381;58.502;8.624;2024-02-23T16:50:35;97217.44;;;2.51;85.09
83152;BME280;73381;58.502;8.624;2024-02-23T16:53:38;97210.72;;;2.48;84.71
83152;BME280;73381;58.502;8.624;2024-02-23T16:56:41;97226.22;;;2.50;86.31
83152;BME280;73381;58.502;8.624;2024-02-23T16:59:47;97188.44;;;2.18;86.36
83152;BME280;73381;58.502;8.624;2024-02-23T17:02:49;97001.16;;;1.08;86.69
83152;BME280;73381;58.502;8.624;2024-02-23T17:05:50;97238.22;;;2.60;86.86
83152;BME280;73381;58.502;8.624;2024-02-23T17:08:52;97253.69;;;2.62;86.59
83152;BME280;73381;58.502;8.624;2024-02-23T17:11:56;97050.63;;;1.16;86.28
83152;BME280;73381;58.502;8.624;2024-02-23T17:14:58;97126.91;;;1.72;86.12
83152;BME280;73381;58.502;8.624;2024-02-23T17:18:00;97252.44;;;2.38;86.73
83152;BME280;73381;58.502;8.624;2024-02-23T17:21:02;97288.81;;;2.58;86.28
83152;BME280;73381;58.502;8.624;2024-02-23T17:24:04;97269.44;;;2.43;86.46
83152;BME280;73381;58.502;8.624;2024-02-23T17:27:10;97261.72;;;2.23;86.42
83152;BME280;73381;58.502;8.624;2024-02-23T17:30:12;97305.84;;;2.52;86.01
83152;BME280;73381;58.502;8.624;2024-02-23T17:33:14;97309.19;;;2.45;86.35
83152;BME280;73381;58.502;8.624;2024-02-23T17:36:16;97132.53;;;1.30;86.32
83152;BME280;73381;58.502;8.624;2024-02-23T17:39:19;97278.59;;;2.19;86.53
83152;BME280;73381;58.502;8.624;2024-02-23T17:42:22;97220.13;;;1.67;87.10
83152;BME280;73381;58.502;8.624;2024-02-23T17:45:24;97337.19;;;2.33;87.44
83152;BME280;73381;58.502;8.624;2024-02-23T17:48:26;97318.88;;;2.15;86.95
83152;BME280;73381;58.502;8.624;2024-02-23T17:51:28;97283.22;;;1.88;87.78
83152;BME280;73381;58.502;8.624;2024-02-23T17:54:30;97370.59;;;2.37;87.89
83152;BME280;73381;58.502;8.624;2024-02-23T17:57:34;97320.41;;;2.08;87.97
83152;BME280;73381;58.502;8.624;2024-02-23T18:00:35;97379.78;;;2.42;88.12
83152;BME280;73381;58.502;8.624;2024-02-23T18:03:37;97323.97;;;2.07;87.35
83152;BME280;73381;58.502;8.624;2024-02-23T18:06:39;97350.13;;;2.15;87.48
83152;BME280;73381;58.502;8.624;2024-02-23T18:09:41;97380.69;;;2.13;87.48
83152;BME280;73381;58.502;8.624;2024-02-23T18:12:45;97233.91;;;1.21;87.93
83152;BME280;73381;58.502;8.624;2024-02-23T18:15:47;97418.28;;;2.38;88.07
83152;BME280;73381;58.502;8.624;2024-02-23T18:18:49;97379.28;;;2.19;88.11
83152;BME280;73381;58.502;8.624;2024-02-23T18:21:51;97331.03;;;1.77;88.29
83152;BME280;73381;58.502;8.624;2024-02-23T18:24:53;97443.50;;;2.37;88.12
83152;BME280;73381;58.502;8.624;2024-02-23T18:27:57;97445.16;;;2.38;87.93
83152;BME280;73381;58.502;8.624;2024-02-23T18:31:00;97382.78;;;1.90;87.54
83152;BME280;73381;58.502;8.624;2024-02-23T18:34:02;97454.78;;;2.28;86.94
83152;BME280;73381;58.502;8.624;2024-02-23T18:37:05;97445.75;;;2.03;87.43
83152;BME280;73381;58.502;8.624;2024-02-23T18:40:08;97387.44;;;1.77;86.89
83152;BME280;73381;58.502;8.624;2024-02-23T18:43:11;97457.25;;;2.11;87.22
83152;BME280;73381;58.502;8.624;2024-02-23T18:46:13;97446.72;;;2.02;87.86
83152;BME280;73381;58.502;8.624;2024-02-23T18:49:15;97474.66;;;2.20;87.36
83152;BME280;73381;58.502;8.624;2024-02-23T18:52:17;97479.31;;;2.16;87.28